Time;durP1;ratioP1;P1;durP2;ratioP2;P2;SDS_P1;SDS_P2;PMS_P1;PMS_P2;Temp;Humidity;BMP_temperature;BMP_pressure;BME280_temperature;BME280_humidity;BME280_pressure;Samples;Min_cycle;Max_cycle;Signal;HPM_P1;HPM_P2
2021/03/29 00:01:17;;;;;;;3.10;2.22;;;;;14.10;102406.00;;;;5089423;28;20202;-74
2021/03/29 00:03:44;;;;;;;3.85;2.00;;;;;14.10;102413.00;;;;5088694;28;20202;-73
2021/03/29 00:06:12;;;;;;;7.85;2.30;;;;;14.10;102419.00;;;;5088872;28;20195;-73
2021/03/29 00:08:40;;;;;;;5.25;2.75;;;;;14.00;102416.00;;;;5090322;28;20645;-73
2021/03/29 00:11:08;;;;;;;5.82;2.65;;;;;14.00;102408.00;;;;5090106;28;20214;-73
2021/03/29 00:13:36;;;;;;;4.93;2.20;;;;;14.00;102409.00;;;;5090175;28;20195;-73
2021/03/29 00:16:03;;;;;;;3.40;2.30;;;;;14.00;102402.00;;;;5090000;28;20201;-73
2021/03/29 00:18:31;;;;;;;5.10;2.53;;;;;14.00;102403.00;;;;5086046;28;20195;-74
2021/03/29 00:21:04;;;;;;;4.20;2.40;;;;;13.90;102403.00;;;;5077108;28;20186;-74
2021/03/29 00:23:32;;;;;;;4.28;2.67;;;;;13.90;102402.00;;;;5073832;28;20202;-74
2021/03/29 00:25:59;;;;;;;4.55;3.28;;;;;13.90;102408.00;;;;5084681;28;21105;-73
2021/03/29 00:28:26;;;;;;;6.40;3.25;;;;;13.90;102397.00;;;;5078698;28;20190;-73
2021/03/29 00:30:53;;;;;;;5.45;2.90;;;;;13.90;102400.00;;;;5089154;28;20232;-74
2021/03/29 00:33:23;;;;;;;3.50;2.47;;;;;13.80;102398.00;;;;5086473;28;20633;-73
2021/03/29 00:35:51;;;;;;;6.28;3.80;;;;;13.80;102403.00;;;;5077812;28;20190;-74
2021/03/29 00:38:19;;;;;;;6.03;3.20;;;;;13.80;102401.00;;;;5088440;28;20197;-74
2021/03/29 00:40:49;;;;;;;4.55;2.55;;;;;13.80;102411.00;;;;5089289;28;20201;-74
2021/03/29 00:43:17;;;;;;;4.22;2.95;;;;;13.80;102407.00;;;;5089804;28;20190;-73
2021/03/29 00:45:46;;;;;;;4.32;3.03;;;;;13.80;102408.00;;;;5086422;28;20195;-73
2021/03/29 00:48:15;;;;;;;5.35;3.30;;;;;13.80;102407.00;;;;5071884;28;20211;-73
2021/03/29 00:50:47;;;;;;;9.02;3.83;;;;;13.70;102408.00;;;;5089457;28;20233;-73
2021/03/29 00:53:16;;;;;;;3.45;2.80;;;;;13.80;102405.00;;;;5088977;28;20205;-73
2021/03/29 00:55:44;;;;;;;8.10;3.70;;;;;13.70;102398.00;;;;5081294;28;20198;-73
2021/03/29 00:58:12;;;;;;;5.25;3.42;;;;;13.70;102403.00;;;;5076149;28;20256;-74
2021/03/29 01:00:42;;;;;;;3.97;3.30;;;;;13.70;102395.00;;;;5078746;28;20198;-73
2021/03/29 01:03:14;;;;;;;4.85;2.67;;;;;13.70;102386.00;;;;5084018;28;21055;-75
2021/03/29 01:05:43;;;;;;;3.63;3.08;;;;;13.70;102389.00;;;;5089021;28;20272;-74
2021/03/29 01:08:12;;;;;;;3.92;2.90;;;;;13.70;102382.00;;;;5077664;28;20197;-74
2021/03/29 01:10:39;;;;;;;3.88;2.75;;;;;13.70;102375.00;;;;5079068;28;20222;-74
2021/03/29 01:13:09;;;;;;;5.85;3.88;;;;;13.70;102389.00;;;;5087775;28;20198;-74
2021/03/29 01:15:38;;;;;;;5.07;3.35;;;;;13.70;102382.00;;;;5089472;28;21075;-74
2021/03/29 01:18:08;;;;;;;4.78;3.70;;;;;13.70;102383.00;;;;5088491;28;20205;-74
2021/03/29 01:20:41;;;;;;;5.10;3.53;;;;;13.60;102373.00;;;;5088658;28;20194;-74
2021/03/29 01:23:09;;;;;;;5.55;2.92;;;;;13.60;102378.00;;;;5088057;28;20198;-74
2021/03/29 01:25:44;;;;;;;5.43;3.58;;;;;13.60;102373.00;;;;5078339;28;20641;-74
2021/03/29 01:28:16;;;;;;;5.53;3.75;;;;;13.60;102381.00;;;;5089594;28;20197;-74
2021/03/29 01:30:44;;;;;;;5.95;4.05;;;;;13.60;102373.00;;;;5087275;28;20210;-74
2021/03/29 01:33:12;;;;;;;5.03;3.75;;;;;13.60;102385.00;;;;5084654;28;20198;-75
2021/03/29 01:35:42;;;;;;;6.60;3.35;;;;;13.60;102387.00;;;;5085676;28;20201;-74
2021/03/29 01:38:10;;;;;;;4.85;3.42;;;;;13.60;102384.00;;;;5087340;28;20194;-74
2021/03/29 01:40:39;;;;;;;5.88;4.07;;;;;13.60;102383.00;;;;5075446;28;20656;-74
2021/03/29 01:43:07;;;;;;;6.72;3.50;;;;;13.60;102385.00;;;;5087558;28;20206;-74
2021/03/29 01:45:36;;;;;;;6.40;3.30;;;;;13.60;102393.00;;;;5089326;28;20209;-74
2021/03/29 01:48:04;;;;;;;3.65;3.08;;;;;13.60;102399.00;;;;5087466;28;20202;-74
2021/03/29 01:50:33;;;;;;;7.82;3.38;;;;;13.60;102402.00;;;;5088623;28;20218;-74
2021/03/29 01:53:01;;;;;;;4.63;3.53;;;;;13.60;102399.00;;;;5088344;28;20209;-74
2021/03/29 01:55:29;;;;;;;5.38;3.55;;;;;13.60;102396.00;;;;5083190;28;20194;-74
2021/03/29 01:57:56;;;;;;;4.22;3.03;;;;;13.60;102391.00;;;;5081632;28;20199;-74
2021/03/29 02:00:26;;;;;;;3.63;3.08;;;;;13.60;102392.00;;;;5088360;28;20201;-74
2021/03/29 02:02:55;;;;;;;4.07;2.42;;;;;13.60;102394.00;;;;5088564;28;20198;-74
2021/03/29 02:05:23;;;;;;;5.15;2.90;;;;;13.60;102396.00;;;;5084060;28;20203;-74
2021/03/29 02:07:52;;;;;;;6.15;3.45;;;;;13.60;102390.00;;;;5068331;28;20194;-74
2021/03/29 02:10:21;;;;;;;4.55;3.15;;;;;13.60;102401.00;;;;5087043;28;20243;-74
2021/03/29 02:12:48;;;;;;;6.05;3.35;;;;;13.60;102395.00;;;;5087978;28;20222;-74
2021/03/29 02:15:18;;;;;;;5.35;3.08;;;;;13.60;102399.00;;;;5081679;28;20203;-74
2021/03/29 02:17:46;;;;;;;4.80;2.58;;;;;13.60;102393.00;;;;5083363;28;20213;-74
2021/03/29 02:20:16;;;;;;;6.97;2.63;;;;;13.60;102394.00;;;;5079563;28;20671;-74
2021/03/29 02:22:45;;;;;;;4.70;2.75;;;;;13.60;102401.00;;;;5068203;28;20253;-74
2021/03/29 02:25:13;;;;;;;7.68;2.50;;;;;13.60;102390.00;;;;5076770;28;20210;-74
2021/03/29 02:27:42;;;;;;;4.25;2.50;;;;;13.60;102393.00;;;;5068991;28;20206;-74
2021/03/29 02:30:11;;;;;;;3.70;2.55;;;;;13.50;102394.00;;;;5088253;28;20198;-74
2021/03/29 02:32:40;;;;;;;4.88;2.60;;;;;13.50;102387.00;;;;5073290;28;20244;-74
2021/03/29 02:35:09;;;;;;;3.40;2.50;;;;;13.50;102374.00;;;;5068446;28;20207;-74
2021/03/29 02:37:37;;;;;;;4.57;2.53;;;;;13.50;102373.00;;;;5067951;28;20191;-74
2021/03/29 02:40:06;;;;;;;6.47;2.60;;;;;13.50;102387.00;;;;5082266;28;20194;-74
2021/03/29 02:42:34;;;;;;;5.00;2.65;;;;;13.50;102387.00;;;;5087478;28;20218;-74
2021/03/29 02:45:01;;;;;;;7.07;2.70;;;;;13.50;102383.00;;;;5086751;28;20198;-74
2021/03/29 02:47:28;;;;;;;4.35;2.40;;;;;13.50;102389.00;;;;5086873;28;20263;-74
2021/03/29 02:49:57;;;;;;;5.15;2.53;;;;;13.50;102389.00;;;;5086270;28;20772;-74
2021/03/29 02:52:24;;;;;;;4.63;2.53;;;;;13.50;102389.00;;;;5086980;28;20752;-74
2021/03/29 02:54:53;;;;;;;5.25;2.22;;;;;13.50;102391.00;;;;5077285;28;20683;-74
2021/03/29 02:57:21;;;;;;;6.00;2.30;;;;;13.50;102390.00;;;;5068041;28;20730;-74
2021/03/29 02:59:48;;;;;;;4.05;2.42;;;;;13.50;102394.00;;;;5084314;28;20671;-74
2021/03/29 03:02:15;;;;;;;7.68;2.33;;;;;13.50;102392.00;;;;5087143;28;20236;-74
2021/03/29 03:04:43;;;;;;;3.78;1.92;;;;;13.50;102389.00;;;;5084969;28;20580;-74
2021/03/29 03:07:10;;;;;;;3.08;1.88;;;;;13.50;102391.00;;;;5087939;28;20202;-74
2021/03/29 03:09:40;;;;;;;7.75;2.55;;;;;13.50;102394.00;;;;5083920;28;20238;-74
2021/03/29 03:12:10;;;;;;;5.47;2.40;;;;;13.40;102381.00;;;;5087441;28;20222;-74
2021/03/29 03:14:38;;;;;;;6.22;2.42;;;;;13.40;102377.00;;;;5087758;28;20191;-74
2021/03/29 03:17:05;;;;;;;6.13;2.05;;;;;13.40;102386.00;;;;5078002;28;20214;-74
2021/03/29 03:19:32;;;;;;;3.95;2.05;;;;;13.40;102386.00;;;;5074486;28;20235;-74
2021/03/29 03:21:59;;;;;;;4.43;2.00;;;;;13.30;102383.00;;;;5067905;28;20631;-74
2021/03/29 03:24:33;;;;;;;3.97;2.10;;;;;13.30;102387.00;;;;5078206;28;20220;-74
2021/03/29 03:27:04;;;;;;;9.30;2.47;;;;;13.30;102387.00;;;;5087393;28;20202;-74
2021/03/29 03:29:33;;;;;;;3.45;2.00;;;;;13.30;102386.00;;;;5086565;28;20206;-74
2021/03/29 03:32:00;;;;;;;1.83;1.50;;;;;13.20;102382.00;;;;5086564;28;20261;-74
2021/03/29 03:34:27;;;;;;;3.72;2.03;;;;;13.20;102384.00;;;;5087464;28;20497;-74
2021/03/29 03:36:55;;;;;;;3.25;1.70;;;;;13.20;102384.00;;;;5088400;28;20202;-74
2021/03/29 03:39:23;;;;;;;3.50;1.77;;;;;13.20;102391.00;;;;5090355;28;20194;-74
2021/03/29 03:41:50;;;;;;;4.22;1.80;;;;;13.20;102391.00;;;;5083767;28;20363;-74
2021/03/29 03:44:19;;;;;;;3.50;1.95;;;;;13.20;102391.00;;;;5070631;28;20202;-74
2021/03/29 03:46:48;;;;;;;3.42;2.42;;;;;13.10;102388.00;;;;5080990;28;20579;-74
2021/03/29 03:49:18;;;;;;;4.00;2.00;;;;;13.10;102389.00;;;;5080443;28;20194;-74
2021/03/29 03:51:47;;;;;;;2.83;1.98;;;;;13.10;102384.00;;;;5083635;28;20218;-74
2021/03/29 03:54:14;;;;;;;2.90;2.00;;;;;13.10;102385.00;;;;5089617;28;20237;-74
2021/03/29 03:56:41;;;;;;;3.33;2.00;;;;;13.10;102384.00;;;;5089404;28;20206;-74
2021/03/29 03:59:09;;;;;;;2.78;1.80;;;;;13.10;102393.00;;;;5081195;28;20203;-74
2021/03/29 04:01:49;;;;;;;6.25;2.28;;;;;13.00;102395.00;;;;5079435;28;20202;-74
2021/03/29 04:04:16;;;;;;;7.40;1.88;;;;;13.00;102393.00;;;;5087606;28;20225;-74
2021/03/29 04:06:42;;;;;;;3.97;1.88;;;;;13.00;102395.00;;;;5090240;28;20198;-74
2021/03/29 04:09:09;;;;;;;4.65;1.90;;;;;13.00;102391.00;;;;5088219;28;20672;-73
2021/03/29 04:11:37;;;;;;;3.75;1.92;;;;;13.00;102401.00;;;;5083087;28;20221;-74
2021/03/29 04:14:04;;;;;;;3.70;2.00;;;;;13.00;102402.00;;;;5069818;28;20206;-74
2021/03/29 04:16:30;;;;;;;3.75;2.00;;;;;13.00;102403.00;;;;5071101;28;20302;-75
2021/03/29 04:18:58;;;;;;;2.85;2.05;;;;;12.90;102407.00;;;;5079623;28;20206;-74
2021/03/29 04:21:25;;;;;;;3.58;1.90;;;;;12.90;102403.00;;;;5079172;28;20186;-74
2021/03/29 04:23:51;;;;;;;4.50;1.98;;;;;12.90;102401.00;;;;5088750;28;20293;-74
2021/03/29 04:26:18;;;;;;;7.18;2.60;;;;;12.90;102405.00;;;;5088521;28;20198;-74
2021/03/29 04:28:45;;;;;;;3.25;1.65;;;;;12.90;102420.00;;;;5088212;28;20197;-74
2021/03/29 04:31:11;;;;;;;4.60;2.38;;;;;12.90;102411.00;;;;5088835;28;20217;-74
2021/03/29 04:33:38;;;;;;;2.67;1.73;;;;;12.90;102427.00;;;;5087824;28;20190;-74
2021/03/29 04:36:06;;;;;;;2.53;1.83;;;;;12.80;102419.00;;;;5088955;28;20209;-74
2021/03/29 04:38:33;;;;;;;2.13;1.45;;;;;12.80;102416.00;;;;5088206;28;20195;-74
2021/03/29 04:41:00;;;;;;;5.10;1.92;;;;;12.80;102417.00;;;;5088890;28;20229;-74
2021/03/29 04:43:27;;;;;;;7.00;2.20;;;;;12.80;102414.00;;;;5087949;28;20664;-74
2021/03/29 04:45:54;;;;;;;3.78;1.90;;;;;12.80;102414.00;;;;5089342;28;20270;-74
2021/03/29 04:48:21;;;;;;;5.95;2.38;;;;;12.80;102415.00;;;;5089194;28;20187;-74
2021/03/29 04:50:47;;;;;;;5.95;1.77;;;;;12.80;102408.00;;;;5088258;28;20233;-73
2021/03/29 04:53:15;;;;;;;3.80;2.03;;;;;12.70;102414.00;;;;5087676;28;20233;-74
2021/03/29 04:55:42;;;;;;;4.85;1.85;;;;;12.70;102414.00;;;;5088996;28;20575;-74
2021/03/29 04:58:08;;;;;;;5.40;1.80;;;;;12.70;102412.00;;;;5083959;28;20316;-74
2021/03/29 05:00:35;;;;;;;4.18;2.58;;;;;12.70;102407.00;;;;5075221;28;20195;-73
2021/03/29 05:03:02;;;;;;;4.38;2.35;;;;;12.70;102407.00;;;;5085253;28;20609;-74
2021/03/29 05:05:29;;;;;;;2.95;1.70;;;;;12.70;102415.00;;;;5086707;28;20695;-74
2021/03/29 05:07:55;;;;;;;5.53;1.85;;;;;12.70;102414.00;;;;5088333;28;20676;-74
2021/03/29 05:10:23;;;;;;;4.45;2.35;;;;;12.70;102415.00;;;;5086601;28;20202;-74
2021/03/29 05:12:50;;;;;;;5.40;2.33;;;;;12.70;102417.00;;;;5085705;28;20271;-74
2021/03/29 05:15:17;;;;;;;4.18;2.10;;;;;12.70;102410.00;;;;5089520;28;20299;-74
2021/03/29 05:17:44;;;;;;;3.25;1.52;;;;;12.70;102413.00;;;;5088987;28;20202;-75
2021/03/29 05:20:11;;;;;;;3.80;2.10;;;;;12.70;102410.00;;;;5088585;28;20194;-73
2021/03/29 05:22:38;;;;;;;3.67;1.67;;;;;12.70;102419.00;;;;5087616;28;20201;-74
2021/03/29 05:25:06;;;;;;;5.00;2.25;;;;;12.70;102426.00;;;;5088715;28;20699;-74
2021/03/29 05:27:33;;;;;;;3.50;2.05;;;;;12.70;102433.00;;;;5089142;28;20207;-74
2021/03/29 05:30:00;;;;;;;3.97;2.03;;;;;12.70;102440.00;;;;5087509;28;20718;-74
2021/03/29 05:32:28;;;;;;;4.00;2.13;;;;;12.80;102445.00;;;;5089167;28;20218;-73
2021/03/29 05:34:57;;;;;;;3.78;2.13;;;;;12.80;102450.00;;;;5080307;28;20687;-73
2021/03/29 05:37:24;;;;;;;4.70;1.95;;;;;12.80;102459.00;;;;5074207;28;20540;-73
2021/03/29 05:39:52;;;;;;;4.75;2.17;;;;;12.80;102455.00;;;;5080724;28;20198;-74
2021/03/29 05:42:21;;;;;;;2.33;1.83;;;;;12.80;102461.00;;;;5073527;28;20745;-74
2021/03/29 05:44:51;;;;;;;2.55;1.83;;;;;12.80;102460.00;;;;5075527;28;20202;-74
2021/03/29 05:47:18;;;;;;;3.95;2.03;;;;;12.80;102450.00;;;;5075906;28;20206;-73
2021/03/29 05:49:45;;;;;;;3.38;2.15;;;;;12.80;102457.00;;;;5074234;28;20275;-75
2021/03/29 05:52:12;;;;;;;4.75;1.92;;;;;12.80;102460.00;;;;5074644;28;20231;-74
2021/03/29 05:54:39;;;;;;;4.93;1.92;;;;;12.90;102453.00;;;;5074932;28;20198;-74
2021/03/29 05:57:09;;;;;;;2.92;1.60;;;;;12.90;102449.00;;;;5075213;28;20597;-74
2021/03/29 05:59:40;;;;;;;4.90;1.92;;;;;12.90;102451.00;;;;5075101;28;20194;-74
2021/03/29 06:02:10;;;;;;;5.35;1.95;;;;;12.90;102458.00;;;;5076876;28;20201;-74
2021/03/29 06:04:44;;;;;;;3.03;1.73;;;;;12.90;102472.00;;;;5079327;28;20198;-73
2021/03/29 06:07:13;;;;;;;3.03;1.88;;;;;13.00;102474.00;;;;5075648;28;20205;-73
2021/03/29 06:09:40;;;;;;;4.20;2.15;;;;;13.00;102478.00;;;;5074488;28;20195;-73
2021/03/29 06:12:08;;;;;;;4.28;2.00;;;;;13.00;102484.00;;;;5073971;28;20578;-74
2021/03/29 06:14:34;;;;;;;3.53;2.05;;;;;13.10;102490.00;;;;5075003;28;20564;-74
2021/03/29 06:17:03;;;;;;;2.85;2.05;;;;;13.10;102489.00;;;;5078512;28;20197;-74
2021/03/29 06:19:35;;;;;;;3.15;2.00;;;;;13.10;102487.00;;;;5068695;28;20658;-74
2021/03/29 06:22:07;;;;;;;4.75;1.73;;;;;13.10;102495.00;;;;5067699;28;20198;-74
2021/03/29 06:25:06;;;;;;;4.03;2.20;;;;;13.10;102493.00;;;;5077082;28;20195;-75
2021/03/29 06:27:40;;;;;;;6.43;1.98;;;;;13.20;102498.00;;;;5071034;28;20212;-75
2021/03/29 06:30:25;;;;;;;4.80;1.95;;;;;13.20;102504.00;;;;5070415;28;20339;-75
2021/03/29 06:33:07;;;;;;;4.43;1.70;;;;;13.20;102507.00;;;;5074053;28;20229;-74
2021/03/29 06:35:38;;;;;;;5.07;1.70;;;;;13.30;102505.00;;;;5068386;28;20200;-74
2021/03/29 06:38:10;;;;;;;3.40;1.67;;;;;13.30;102517.00;;;;5068392;28;20198;-75
2021/03/29 06:40:39;;;;;;;3.40;1.83;;;;;13.40;102517.00;;;;5068325;28;20302;-74
2021/03/29 06:43:26;;;;;;;3.53;1.85;;;;;13.30;102520.00;;;;5080820;28;20588;-74
2021/03/29 06:45:55;;;;;;;4.68;1.70;;;;;13.50;102515.00;;;;5078641;28;20209;-75
2021/03/29 06:48:24;;;;;;;3.28;1.80;;;;;13.50;102511.00;;;;5084336;28;20202;-75
2021/03/29 06:51:14;;;;;;;4.60;1.90;;;;;13.40;102518.00;;;;5083549;28;20284;-74
2021/03/29 06:53:43;;;;;;;3.42;2.25;;;;;13.50;102520.00;;;;5083367;28;20199;-74
2021/03/29 06:56:38;;;;;;;3.42;1.80;;;;;13.50;102520.00;;;;5079820;28;20190;-75
2021/03/29 06:59:15;;;;;;;2.53;1.50;;;;;13.60;102527.00;;;;5084570;28;20603;-74
2021/03/29 07:01:50;;;;;;;7.45;2.58;;;;;13.60;102532.00;;;;5085880;28;20582;-75
2021/03/29 07:04:20;;;;;;;3.17;1.95;;;;;13.80;102540.00;;;;5086127;28;20193;-74
2021/03/29 07:06:48;;;;;;;3.55;2.28;;;;;13.80;102537.00;;;;5082353;28;20727;-75
2021/03/29 07:09:16;;;;;;;4.68;1.75;;;;;13.90;102537.00;;;;5078579;28;20202;-75
2021/03/29 07:11:44;;;;;;;2.38;1.58;;;;;13.90;102538.00;;;;5081230;28;20221;-74
2021/03/29 07:14:12;;;;;;;2.80;1.83;;;;;14.00;102541.00;;;;5087426;28;20750;-75
2021/03/29 07:16:41;;;;;;;7.25;2.60;;;;;14.10;102543.00;;;;5075741;28;20198;-75
2021/03/29 07:19:09;;;;;;;2.85;2.03;;;;;14.20;102547.00;;;;5090381;28;20681;-75
2021/03/29 07:21:37;;;;;;;4.45;2.03;;;;;14.30;102545.00;;;;5090910;28;20692;-75
2021/03/29 07:24:07;;;;;;;3.65;1.88;;;;;14.40;102548.00;;;;5090467;28;20671;-75
2021/03/29 07:26:38;;;;;;;7.28;2.28;;;;;14.40;102548.00;;;;5081878;28;20355;-75
2021/03/29 07:29:21;;;;;;;5.60;2.08;;;;;14.50;102544.00;;;;5080452;28;20686;-74
2021/03/29 07:31:51;;;;;;;6.90;1.88;;;;;14.60;102548.00;;;;5091689;28;20230;-75
2021/03/29 07:34:18;;;;;;;3.13;1.77;;;;;14.70;102556.00;;;;5090208;28;20194;-75
2021/03/29 07:36:47;;;;;;;4.53;1.67;;;;;14.80;102549.00;;;;5089051;28;20201;-73
2021/03/29 07:39:21;;;;;;;3.78;2.08;;;;;14.90;102557.00;;;;5089335;28;20683;-73
2021/03/29 07:42:15;;;;;;;4.40;1.83;;;;;15.00;102550.00;;;;5090748;28;20694;-76
2021/03/29 07:44:51;;;;;;;4.60;2.05;;;;;15.10;102557.00;;;;5089730;28;20194;-75
2021/03/29 07:47:40;;;;;;;3.60;1.92;;;;;15.10;102556.00;;;;5076909;28;20199;-75
2021/03/29 07:50:09;;;;;;;3.40;1.88;;;;;15.30;102555.00;;;;5077191;28;20222;-75
2021/03/29 07:52:39;;;;;;;3.50;1.90;;;;;15.40;102557.00;;;;5088393;28;20226;-75
2021/03/29 07:55:19;;;;;;;4.00;2.20;;;;;15.40;102559.00;;;;5090728;28;20202;-74
2021/03/29 07:58:09;;;;;;;3.15;1.65;;;;;15.50;102568.00;;;;5091002;28;20247;-75
2021/03/29 08:01:01;;;;;;;4.85;2.00;;;;;15.50;102558.00;;;;5070413;28;20218;-75
2021/03/29 08:03:45;;;;;;;4.07;2.00;;;;;15.60;102572.00;;;;5065076;28;20191;-75
2021/03/29 08:06:40;;;;;;;3.50;1.90;;;;;15.70;102573.00;;;;5090481;28;20205;-75
2021/03/29 08:09:08;;;;;;;4.32;1.60;;;;;15.90;102571.00;;;;5052384;28;20651;-75
2021/03/29 08:11:54;;;;;;;2.95;1.60;;;;;15.90;102573.00;;;;5084893;28;20283;-74
2021/03/29 08:14:30;;;;;;;6.45;1.73;;;;;16.00;102586.00;;;;5090457;28;20198;-76
2021/03/29 08:16:57;;;;;;;8.48;2.00;;;;;16.20;102580.00;;;;5082938;28;20205;-76
2021/03/29 08:19:25;;;;;;;3.80;1.92;;;;;16.20;102589.00;;;;5082254;28;20205;-75
2021/03/29 08:21:53;;;;;;;3.90;1.98;;;;;16.30;102588.00;;;;5090446;28;20294;-75
2021/03/29 08:24:23;;;;;;;3.70;1.33;;;;;16.40;102597.00;;;;5086539;28;20203;-76
2021/03/29 08:26:51;;;;;;;2.70;1.45;;;;;16.50;102607.00;;;;5090134;28;20206;-73
2021/03/29 08:29:29;;;;;;;5.20;1.83;;;;;16.50;102605.00;;;;5089055;28;20190;-74
2021/03/29 08:32:11;;;;;;;3.45;1.15;;;;;16.60;102605.00;;;;5085316;28;20683;-74
2021/03/29 08:34:44;;;;;;;3.33;1.55;;;;;16.70;102607.00;;;;5088722;28;20277;-74
2021/03/29 08:37:15;;;;;;;4.85;2.10;;;;;16.80;102602.00;;;;5087143;28;20233;-75
2021/03/29 08:39:44;;;;;;;6.72;2.63;;;;;16.90;102614.00;;;;5089307;28;20210;-75
2021/03/29 08:42:12;;;;;;;4.63;2.08;;;;;17.00;102606.00;;;;5085113;28;20224;-75
2021/03/29 08:44:42;;;;;;;7.80;2.33;;;;;17.00;102597.00;;;;5079488;28;20206;-74
2021/03/29 08:47:11;;;;;;;4.40;1.63;;;;;17.10;102614.00;;;;5079166;28;20194;-74
2021/03/29 08:49:39;;;;;;;5.28;1.73;;;;;17.10;102608.00;;;;5076904;28;20246;-75
2021/03/29 08:52:06;;;;;;;2.63;1.33;;;;;17.20;102612.00;;;;5076808;28;20229;-75
2021/03/29 08:54:33;;;;;;;5.75;1.60;;;;;17.30;102615.00;;;;5074451;28;20214;-75
2021/03/29 08:57:06;;;;;;;10.13;3.05;;;;;17.40;102610.00;;;;5083543;28;20695;-76
2021/03/29 08:59:33;;;;;;;5.65;1.63;;;;;17.50;102617.00;;;;5083301;28;20194;-76
2021/03/29 09:02:13;;;;;;;5.50;2.03;;;;;17.50;102616.00;;;;5088275;28;20568;-75
2021/03/29 09:04:48;;;;;;;3.90;1.90;;;;;17.50;102624.00;;;;5071543;28;20205;-76
2021/03/29 09:07:15;;;;;;;8.73;1.73;;;;;17.70;102630.00;;;;5088840;28;20194;-76
2021/03/29 09:09:43;;;;;;;5.70;1.67;;;;;17.80;102630.00;;;;5076246;28;20191;-77
2021/03/29 09:12:22;;;;;;;3.83;2.20;;;;;17.80;102628.00;;;;5084029;28;20214;-76
2021/03/29 09:14:48;;;;;;;2.38;1.15;;;;;17.90;102632.00;;;;5086786;28;20202;-76
2021/03/29 09:17:27;;;;;;;4.47;1.55;;;;;18.00;102639.00;;;;5082618;28;21044;-77
2021/03/29 09:19:54;;;;;;;3.03;1.55;;;;;18.10;102642.00;;;;5089115;28;20191;-76
2021/03/29 09:22:35;;;;;;;2.38;1.60;;;;;18.20;102659.00;;;;5078198;28;20278;-78
2021/03/29 09:25:04;;;;;;;2.88;1.83;;;;;18.30;102654.00;;;;5084635;28;20983;-76
2021/03/29 09:27:35;;;;;;;4.22;1.42;;;;;18.40;102658.00;;;;5088251;28;20186;-77
2021/03/29 09:30:04;;;;;;;4.93;1.70;;;;;18.50;102662.00;;;;5087409;28;20962;-77
2021/03/29 09:32:33;;;;;;;4.47;1.65;;;;;18.50;102674.00;;;;5077625;28;20222;-77
2021/03/29 09:35:01;;;;;;;3.40;2.20;;;;;18.70;102661.00;;;;5087722;28;20717;-78
2021/03/29 09:37:29;;;;;;;3.20;1.80;;;;;18.70;102667.00;;;;5087781;28;20194;-77
2021/03/29 09:40:05;;;;;;;3.97;1.35;;;;;18.70;102676.00;;;;5087509;28;20695;-78
2021/03/29 09:42:36;;;;;;;6.40;2.55;;;;;18.80;102680.00;;;;5088290;28;20695;-76
2021/03/29 09:45:04;;;;;;;3.55;2.17;;;;;18.90;102688.00;;;;5088484;28;20194;-76
2021/03/29 09:47:32;;;;;;;3.22;1.92;;;;;18.90;102687.00;;;;5084197;28;20210;-77
2021/03/29 09:49:59;;;;;;;5.82;1.77;;;;;19.00;102687.00;;;;5088136;28;20754;-75
2021/03/29 09:52:39;;;;;;;5.93;2.20;;;;;19.00;102687.00;;;;5088442;28;20237;-78
2021/03/29 09:55:07;;;;;;;3.53;2.08;;;;;19.10;102696.00;;;;5081575;28;20194;-76
2021/03/29 09:57:39;;;;;;;4.53;2.28;;;;;19.20;102693.00;;;;5078650;28;20202;-77
2021/03/29 10:00:17;;;;;;;3.35;1.50;;;;;19.20;102695.00;;;;5083009;28;20275;-76
2021/03/29 10:02:46;;;;;;;6.43;2.00;;;;;19.40;102705.00;;;;5085538;28;20222;-76
2021/03/29 10:05:15;;;;;;;7.90;2.05;;;;;19.50;102695.00;;;;5084090;28;20198;-74
2021/03/29 10:07:52;;;;;;;5.07;2.30;;;;;19.40;102699.00;;;;5083155;28;20197;-76
2021/03/29 10:10:27;;;;;;;4.10;1.92;;;;;19.50;102699.00;;;;5079042;28;20226;-76
2021/03/29 10:13:08;;;;;;;5.40;2.92;;;;;19.50;102709.00;;;;5078797;28;20229;-76
2021/03/29 10:15:37;;;;;;;8.48;2.90;;;;;19.70;102703.00;;;;5082230;28;20196;-76
2021/03/29 10:18:13;;;;;;;4.47;2.03;;;;;19.70;102699.00;;;;5069770;28;20205;-76
2021/03/29 10:20:43;;;;;;;3.45;1.83;;;;;19.80;102698.00;;;;5083433;28;20201;-75
2021/03/29 10:23:24;;;;;;;6.60;1.85;;;;;19.80;102703.00;;;;5080075;28;20264;-76
2021/03/29 10:26:13;;;;;;;5.05;2.20;;;;;19.80;102708.00;;;;5086358;28;20201;-77
2021/03/29 10:28:50;;;;;;;4.60;2.22;;;;;20.00;102710.00;;;;5073680;28;20198;-77
2021/03/29 10:31:17;;;;;;;4.35;2.03;;;;;20.10;102706.00;;;;5073056;28;20228;-76
2021/03/29 10:33:45;;;;;;;6.65;2.75;;;;;20.10;102719.00;;;;5075308;28;20226;-77
2021/03/29 10:36:14;;;;;;;5.60;2.75;;;;;20.10;102718.00;;;;5082578;28;20202;-76
2021/03/29 10:38:41;;;;;;;4.47;2.05;;;;;20.20;102715.00;;;;5076193;28;20281;-77
2021/03/29 10:41:08;;;;;;;8.30;2.33;;;;;20.20;102717.00;;;;5076557;28;20672;-76
2021/03/29 10:43:34;;;;;;;6.00;2.47;;;;;20.30;102710.00;;;;5087829;28;20221;-76
2021/03/29 10:46:01;;;;;;;8.32;2.83;;;;;20.40;102708.00;;;;5078572;28;20587;-76
2021/03/29 10:48:28;;;;;;;3.30;2.42;;;;;20.40;102714.00;;;;5071857;28;20194;-77
2021/03/29 10:50:56;;;;;;;8.18;2.38;;;;;20.40;102712.00;;;;5076363;28;20627;-76
2021/03/29 10:53:23;;;;;;;3.65;2.00;;;;;20.50;102712.00;;;;5086045;28;20232;-78
2021/03/29 10:55:50;;;;;;;3.85;2.08;;;;;20.50;102709.00;;;;5081433;28;20583;-77
2021/03/29 10:58:16;;;;;;;2.88;2.30;;;;;20.50;102708.00;;;;5084261;28;20198;-76
2021/03/29 11:00:43;;;;;;;4.72;2.20;;;;;20.60;102703.00;;;;5091785;28;20205;-76
2021/03/29 11:03:10;;;;;;;4.35;2.10;;;;;20.70;102712.00;;;;5091475;28;20228;-77
2021/03/29 11:05:37;;;;;;;7.18;2.45;;;;;20.80;102710.00;;;;5091243;28;20259;-77
2021/03/29 11:08:05;;;;;;;4.57;2.40;;;;;20.80;102707.00;;;;5090546;28;20700;-78
2021/03/29 11:10:33;;;;;;;5.07;2.42;;;;;20.90;102709.00;;;;5074299;28;20571;-78
2021/03/29 11:13:00;;;;;;;4.47;2.63;;;;;21.00;102706.00;;;;5089907;28;20263;-78
2021/03/29 11:15:28;;;;;;;5.80;2.90;;;;;21.10;102713.00;;;;5089144;28;20202;-76
2021/03/29 11:17:55;;;;;;;7.05;2.55;;;;;21.10;102703.00;;;;5090794;28;20194;-78
2021/03/29 11:20:22;;;;;;;3.40;2.22;;;;;21.20;102705.00;;;;5089038;28;20267;-77
2021/03/29 11:22:49;;;;;;;7.05;2.33;;;;;21.20;102708.00;;;;5090047;28;20194;-79
2021/03/29 11:25:17;;;;;;;4.70;2.15;;;;;21.30;102706.00;;;;5080842;28;20194;-78
2021/03/29 11:27:43;;;;;;;6.93;2.35;;;;;21.30;102709.00;;;;5090582;28;20213;-78
2021/03/29 11:30:13;;;;;;;6.03;2.42;;;;;21.40;102706.00;;;;5089387;28;20565;-77
2021/03/29 11:32:40;;;;;;;5.28;2.95;;;;;21.40;102706.00;;;;5083802;28;20328;-78
2021/03/29 11:35:08;;;;;;;10.82;2.95;;;;;21.50;102704.00;;;;5089964;28;20686;-77
2021/03/29 11:37:36;;;;;;;3.60;2.40;;;;;21.50;102700.00;;;;5092030;28;20267;-77
2021/03/29 11:40:03;;;;;;;4.20;2.55;;;;;21.60;102721.00;;;;5090076;28;20233;-77
2021/03/29 11:42:31;;;;;;;9.80;3.08;;;;;21.60;102723.00;;;;5090383;28;20588;-78
2021/03/29 11:44:57;;;;;;;4.72;2.13;;;;;21.60;102712.00;;;;5071351;28;20207;-77
2021/03/29 11:47:24;;;;;;;4.15;2.15;;;;;21.70;102713.00;;;;5073515;28;20222;-77
2021/03/29 11:49:51;;;;;;;4.30;2.78;;;;;21.70;102719.00;;;;5086039;28;20238;-76
2021/03/29 11:52:18;;;;;;;7.45;3.03;;;;;21.70;102723.00;;;;5087850;28;20252;-76
2021/03/29 11:54:45;;;;;;;5.82;2.70;;;;;21.70;102728.00;;;;5089875;28;20183;-76
2021/03/29 11:57:11;;;;;;;5.65;3.20;;;;;21.70;102722.00;;;;5078112;28;20207;-76
2021/03/29 11:59:45;;;;;;;4.03;2.85;;;;;21.80;102731.00;;;;5085482;28;20195;-77
2021/03/29 12:02:17;;;;;;;6.50;2.75;;;;;21.80;102731.00;;;;5085470;28;20281;-76
2021/03/29 12:04:52;;;;;;;4.63;2.72;;;;;21.90;102727.00;;;;5081250;28;20202;-76
2021/03/29 12:07:21;;;;;;;5.25;2.85;;;;;21.90;102718.00;;;;5079800;28;20210;-74
2021/03/29 12:11:45;;;;;;;4.32;2.58;;;;;22.00;102731.00;;;;5082697;28;20203;-76
2021/03/29 12:12:39;;;;;;;6.57;2.67;;;;;22.00;102726.00;;;;5087875;28;20218;-75
2021/03/29 12:15:11;;;;;;;6.03;2.85;;;;;22.00;102724.00;;;;5088628;28;20519;-75
2021/03/29 12:17:39;;;;;;;4.75;2.70;;;;;22.10;102719.00;;;;5082304;28;20202;-74
2021/03/29 12:20:07;;;;;;;6.18;2.85;;;;;22.20;102721.00;;;;5085444;28;20214;-75
2021/03/29 12:22:35;;;;;;;4.53;2.88;;;;;22.20;102723.00;;;;5081048;28;20199;-76